Time;durP1;ratioP1;P1;durP2;ratioP2;P2;SDS_P1;SDS_P2;PMS_P1;PMS_P2;Temp;Humidity;BMP_temperature;BMP_pressure;BME280_temperature;BME280_humidity;BME280_pressure;Samples;Min_cycle;Max_cycle;Signal;HPM_P1;HPM_P2
2021/08/23 00:01:11;;;;;;;0.00;0.00;;;;;;;;;;5056525;28;20498;-66
2021/08/23 00:03:38;;;;;;;0.00;0.00;;;;;;;;;;5056531;28;20227;-67
2021/08/23 00:06:05;;;;;;;0.10;0.10;;;;;;;;;;5058518;28;20210;-67
2021/08/23 00:08:31;;;;;;;0.10;0.10;;;;;;;;;;5053006;28;20214;-67
2021/08/23 00:10:57;;;;;;;0.00;0.00;;;;;;;;;;5060302;28;20212;-67
2021/08/23 00:13:24;;;;;;;0.10;0.10;;;;;;;;;;5068617;28;20207;-68
2021/08/23 00:15:54;;;;;;;0.00;0.00;;;;;;;;;;5083090;28;20204;-67
2021/08/23 00:18:21;;;;;;;0.00;0.00;;;;;;;;;;5082790;28;20224;-67
2021/08/23 00:20:54;;;;;;;0.10;0.10;;;;;;;;;;5072494;28;20327;-67
2021/08/23 00:23:21;;;;;;;0.00;0.00;;;;;;;;;;5077377;28;20223;-68
2021/08/23 00:25:47;;;;;;;0.03;0.03;;;;;;;;;;5072544;28;20281;-68
2021/08/23 00:28:14;;;;;;;0.00;0.00;;;;;;;;;;5083741;28;20207;-68
2021/08/23 00:30:40;;;;;;;0.03;0.03;;;;;;;;;;5086780;28;20207;-68
2021/08/23 00:33:07;;;;;;;0.00;0.00;;;;;;;;;;5084237;28;20230;-68
2021/08/23 00:35:34;;;;;;;0.05;0.05;;;;;;;;;;5072900;28;20248;-68
2021/08/23 00:38:00;;;;;;;0.00;0.00;;;;;;;;;;5086651;28;20484;-68
2021/08/23 00:40:27;;;;;;;0.00;0.00;;;;;;;;;;5086098;28;20432;-67
2021/08/23 00:42:53;;;;;;;0.00;0.00;;;;;;;;;;5076131;28;20264;-67
2021/08/23 00:45:20;;;;;;;0.00;0.00;;;;;;;;;;5083043;28;20205;-67
2021/08/23 00:47:46;;;;;;;0.00;0.00;;;;;;;;;;5086322;28;20252;-67
2021/08/23 00:50:14;;;;;;;0.00;0.00;;;;;;;;;;5086593;28;20415;-67
2021/08/23 00:52:40;;;;;;;0.00;0.00;;;;;;;;;;5085892;28;20401;-67
2021/08/23 00:55:07;;;;;;;0.08;0.08;;;;;;;;;;5086248;28;20253;-67
2021/08/23 00:57:33;;;;;;;0.00;0.00;;;;;;;;;;5081153;28;20201;-68
2021/08/23 01:00:00;;;;;;;0.00;0.00;;;;;;;;;;5077755;28;20216;-68
2021/08/23 01:02:28;;;;;;;0.10;0.10;;;;;;;;;;5082798;28;20424;-68
2021/08/23 01:04:57;;;;;;;0.10;0.10;;;;;;;;;;5075601;28;20213;-67
2021/08/23 01:07:27;;;;;;;0.00;0.00;;;;;;;;;;5083394;28;20205;-68
2021/08/23 01:09:56;;;;;;;0.00;0.00;;;;;;;;;;5056911;28;20205;-67
2021/08/23 06:38:37;;;;;;;0.00;0.00;;;;;;;;;;5045095;28;20250;-67
2021/08/23 06:41:03;;;;;;;0.00;0.00;;;;;;;;;;5050541;28;20537;-68
2021/08/23 06:43:30;;;;;;;0.00;0.00;;;;;;;;;;5053017;28;20243;-68
2021/08/23 06:45:56;;;;;;;0.20;0.20;;;;;;;;;;5061790;28;20204;-67
2021/08/23 06:48:22;;;;;;;0.10;0.10;;;;;;;;;;5054803;28;20270;-67
2021/08/23 06:50:48;;;;;;;0.05;0.05;;;;;;;;;;5044602;28;20521;-69
2021/08/23 06:53:15;;;;;;;0.10;0.10;;;;;;;;;;5052197;28;20387;-68
2021/08/23 06:55:42;;;;;;;0.08;0.08;;;;;;;;;;5051472;28;20509;-67
2021/08/23 06:58:08;;;;;;;0.10;0.10;;;;;;;;;;5056264;28;20230;-67
2021/08/23 07:00:35;;;;;;;0.00;0.00;;;;;;;;;;5056210;28;20292;-69
2021/08/23 07:03:02;;;;;;;0.10;0.10;;;;;;;;;;5063247;28;20198;-67
2021/08/23 07:05:28;;;;;;;0.10;0.10;;;;;;;;;;5063488;28;20206;-70
2021/08/23 07:07:55;;;;;;;0.08;0.08;;;;;;;;;;5063406;28;20360;-69
2021/08/23 07:10:21;;;;;;;0.30;0.30;;;;;;;;;;5053149;28;20250;-70
2021/08/23 07:12:48;;;;;;;0.10;0.10;;;;;;;;;;5062853;28;20228;-68
2021/08/23 07:15:15;;;;;;;0.00;0.00;;;;;;;;;;5055968;28;20212;-68
2021/08/23 07:17:41;;;;;;;0.03;0.03;;;;;;;;;;5063241;28;20274;-67
2021/08/23 07:20:08;;;;;;;0.10;0.10;;;;;;;;;;5056040;28;20275;-68
2021/08/23 07:22:34;;;;;;;0.10;0.10;;;;;;;;;;5055917;28;20201;-67
2021/08/23 07:25:01;;;;;;;0.08;0.08;;;;;;;;;;5056179;28;20205;-68
2021/08/23 07:27:27;;;;;;;0.05;0.05;;;;;;;;;;5063337;28;20236;-68
2021/08/23 07:29:54;;;;;;;0.00;0.00;;;;;;;;;;5075904;28;20418;-68
2021/08/23 07:32:21;;;;;;;0.10;0.10;;;;;;;;;;5083204;28;20220;-67
2021/08/23 07:34:47;;;;;;;0.00;0.00;;;;;;;;;;5072711;28;20206;-67
2021/08/23 07:37:14;;;;;;;0.10;0.10;;;;;;;;;;5051601;28;20210;-66
2021/08/23 07:39:41;;;;;;;0.00;0.00;;;;;;;;;;5074970;28;20436;-67
2021/08/23 07:42:08;;;;;;;0.08;0.08;;;;;;;;;;5078219;28;20207;-66
2021/08/23 07:44:34;;;;;;;0.00;0.00;;;;;;;;;;5076339;28;20206;-67
2021/08/23 07:47:02;;;;;;;0.10;0.10;;;;;;;;;;5063367;28;20208;-67
2021/08/23 07:49:28;;;;;;;0.00;0.00;;;;;;;;;;5082975;28;20214;-67
2021/08/23 07:51:54;;;;;;;0.00;0.00;;;;;;;;;;5082777;28;20214;-67
2021/08/23 07:54:21;;;;;;;0.08;0.08;;;;;;;;;;5080853;28;20236;-66
2021/08/23 07:56:47;;;;;;;0.10;0.10;;;;;;;;;;5073683;28;20258;-67
2021/08/23 07:59:13;;;;;;;0.10;0.10;;;;;;;;;;5078680;28;20208;-67
2021/08/23 08:01:40;;;;;;;0.10;0.10;;;;;;;;;;5078327;28;20385;-67
2021/08/23 08:04:07;;;;;;;0.10;0.10;;;;;;;;;;5083156;28;20248;-67
2021/08/23 08:06:33;;;;;;;0.00;0.00;;;;;;;;;;5083186;28;20205;-67
2021/08/23 08:09:00;;;;;;;0.00;0.00;;;;;;;;;;5083232;28;20232;-67
2021/08/23 08:11:26;;;;;;;0.10;0.10;;;;;;;;;;5083131;28;20248;-67
2021/08/23 08:13:52;;;;;;;0.00;0.00;;;;;;;;;;5083115;28;20302;-67
2021/08/23 08:16:18;;;;;;;0.10;0.10;;;;;;;;;;5066483;28;20212;-67
2021/08/23 08:18:45;;;;;;;0.00;0.00;;;;;;;;;;5071562;28;20318;-68
2021/08/23 08:21:12;;;;;;;0.00;0.00;;;;;;;;;;5068457;28;20235;-66
2021/08/23 08:23:39;;;;;;;0.00;0.00;;;;;;;;;;5076074;28;20200;-67
2021/08/23 08:26:05;;;;;;;0.00;0.00;;;;;;;;;;5062947;28;20205;-67
2021/08/23 08:28:33;;;;;;;0.00;0.00;;;;;;;;;;5081598;28;20204;-67
2021/08/23 08:30:59;;;;;;;0.08;0.08;;;;;;;;;;5067540;28;20492;-68
2021/08/23 08:33:25;;;;;;;0.10;0.10;;;;;;;;;;5045198;28;20391;-68
2021/08/23 08:35:57;;;;;;;0.00;0.00;;;;;;;;;;5062093;28;20238;-68
2021/08/23 08:38:25;;;;;;;0.00;0.00;;;;;;;;;;5054438;28;20490;-68
2021/08/23 08:40:51;;;;;;;0.10;0.10;;;;;;;;;;5059980;28;20207;-67
2021/08/23 08:43:18;;;;;;;0.00;0.00;;;;;;;;;;5046478;28;20203;-67
2021/08/23 08:45:44;;;;;;;0.00;0.00;;;;;;;;;;5045538;28;20230;-68
2021/08/23 08:48:11;;;;;;;0.10;0.10;;;;;;;;;;5046725;28;20208;-68
2021/08/23 08:50:37;;;;;;;0.10;0.10;;;;;;;;;;5054085;28;20279;-67
2021/08/23 08:53:06;;;;;;;0.00;0.00;;;;;;;;;;5066370;28;20256;-67
2021/08/23 08:55:35;;;;;;;0.00;0.00;;;;;;;;;;5056547;28;20206;-67
2021/08/23 08:58:02;;;;;;;0.10;0.10;;;;;;;;;;5051452;28;20216;-67
2021/08/23 09:00:28;;;;;;;0.00;0.00;;;;;;;;;;5057815;28;20493;-67
2021/08/23 09:02:55;;;;;;;0.10;0.10;;;;;;;;;;5063586;28;20209;-68
2021/08/23 09:05:21;;;;;;;0.10;0.10;;;;;;;;;;5059353;28;20248;-66
2021/08/23 09:07:48;;;;;;;0.03;0.03;;;;;;;;;;5061931;28;20206;-66
2021/08/23 09:10:18;;;;;;;0.10;0.10;;;;;;;;;;5061014;28;20209;-66
2021/08/23 09:12:46;;;;;;;0.00;0.00;;;;;;;;;;5060751;28;20227;-66
2021/08/23 09:15:12;;;;;;;0.03;0.03;;;;;;;;;;5062063;28;20422;-67
2021/08/23 09:17:39;;;;;;;0.00;0.00;;;;;;;;;;5049189;28;20233;-66
2021/08/23 09:20:06;;;;;;;0.10;0.10;;;;;;;;;;5065097;28;20210;-66
2021/08/23 09:22:33;;;;;;;0.10;0.10;;;;;;;;;;5057608;28;20242;-66
2021/08/23 09:25:07;;;;;;;0.00;0.00;;;;;;;;;;5061397;28;20198;-66
2021/08/23 09:27:33;;;;;;;0.10;0.10;;;;;;;;;;5063582;28;20247;-66
2021/08/23 09:30:02;;;;;;;0.00;0.00;;;;;;;;;;5073364;28;20201;-66
2021/08/23 09:32:29;;;;;;;0.10;0.10;;;;;;;;;;5054069;28;20208;-67
2021/08/23 09:34:56;;;;;;;0.00;0.00;;;;;;;;;;5045588;28;20205;-67
2021/08/23 09:37:23;;;;;;;0.03;0.03;;;;;;;;;;5045950;28;20429;-67
2021/08/23 09:39:50;;;;;;;0.10;0.10;;;;;;;;;;5051504;28;20508;-66
2021/08/23 09:42:19;;;;;;;0.03;0.03;;;;;;;;;;5053348;28;20250;-66
2021/08/23 09:44:46;;;;;;;0.00;0.00;;;;;;;;;;5045292;28;20210;-66
2021/08/23 09:47:14;;;;;;;0.00;0.00;;;;;;;;;;5045555;28;20498;-65
2021/08/23 09:49:40;;;;;;;0.10;0.10;;;;;;;;;;5048281;28;20387;-66
2021/08/23 09:52:07;;;;;;;0.10;0.10;;;;;;;;;;5056273;28;20218;-66
2021/08/23 09:54:34;;;;;;;0.00;0.00;;;;;;;;;;5060563;28;20228;-67
2021/08/23 09:57:00;;;;;;;0.00;0.00;;;;;;;;;;5065154;28;20222;-67
2021/08/23 09:59:27;;;;;;;0.10;0.10;;;;;;;;;;5051837;28;20213;-66
2021/08/23 10:01:55;;;;;;;0.00;0.00;;;;;;;;;;5069814;28;20261;-66
2021/08/23 10:04:23;;;;;;;0.00;0.00;;;;;;;;;;5064236;28;20560;-66
2021/08/23 10:06:50;;;;;;;0.10;0.10;;;;;;;;;;5061613;28;20396;-67
2021/08/23 10:09:18;;;;;;;0.08;0.08;;;;;;;;;;5064635;28;20398;-67
2021/08/23 10:11:44;;;;;;;0.00;0.00;;;;;;;;;;5061728;28;20449;-66
2021/08/23 10:14:11;;;;;;;0.00;0.00;;;;;;;;;;5061737;28;20226;-66
2021/08/23 10:16:37;;;;;;;0.00;0.00;;;;;;;;;;5061373;28;20247;-67
2021/08/23 10:19:03;;;;;;;0.10;0.10;;;;;;;;;;5064521;28;20292;-66
2021/08/23 10:21:31;;;;;;;0.00;0.00;;;;;;;;;;5064330;28;20204;-66
2021/08/23 10:23:58;;;;;;;0.10;0.10;;;;;;;;;;5064839;28;20539;-66
2021/08/23 10:26:24;;;;;;;0.00;0.00;;;;;;;;;;5064270;28;20387;-67
2021/08/23 10:28:51;;;;;;;0.82;0.82;;;;;;;;;;5051577;28;20204;-66
2021/08/23 10:31:18;;;;;;;0.10;0.10;;;;;;;;;;5080975;28;20267;-66
2021/08/23 10:33:46;;;;;;;0.10;0.10;;;;;;;;;;5068576;28;20253;-66
2021/08/23 10:36:13;;;;;;;0.00;0.00;;;;;;;;;;5072432;28;20205;-65
2021/08/23 10:38:40;;;;;;;0.00;0.00;;;;;;;;;;5083915;28;20212;-67
2021/08/23 10:41:09;;;;;;;0.00;0.00;;;;;;;;;;5077753;28;20206;-65
2021/08/23 10:43:43;;;;;;;0.00;0.00;;;;;;;;;;5077091;28;20276;-65
2021/08/23 10:46:18;;;;;;;0.00;0.00;;;;;;;;;;5084113;28;20380;-66
2021/08/23 10:48:46;;;;;;;0.00;0.00;;;;;;;;;;5084672;28;20421;-67
2021/08/23 10:51:13;;;;;;;0.00;0.00;;;;;;;;;;5055597;28;20221;-67
2021/08/23 10:53:43;;;;;;;0.00;0.00;;;;;;;;;;5072301;28;20229;-67
2021/08/23 10:56:13;;;;;;;0.00;0.00;;;;;;;;;;5068098;28;20201;-66
2021/08/23 10:58:39;;;;;;;0.00;0.00;;;;;;;;;;5083604;28;20238;-66
2021/08/23 11:01:15;;;;;;;0.10;0.10;;;;;;;;;;5080467;28;20267;-67
2021/08/23 11:03:42;;;;;;;0.00;0.00;;;;;;;;;;5063555;28;20208;-66
2021/08/23 11:06:08;;;;;;;0.10;0.10;;;;;;;;;;5079645;28;20205;-66
2021/08/23 11:08:35;;;;;;;0.10;0.10;;;;;;;;;;5082007;28;20204;-67
2021/08/23 11:11:12;;;;;;;0.00;0.00;;;;;;;;;;5047397;28;20240;-66
2021/08/23 11:13:40;;;;;;;0.10;0.10;;;;;;;;;;5063320;28;20408;-66
2021/08/23 11:16:06;;;;;;;0.05;0.05;;;;;;;;;;5063244;28;20205;-67
2021/08/23 11:18:39;;;;;;;0.05;0.05;;;;;;;;;;5060049;28;20249;-67
2021/08/23 11:21:06;;;;;;;0.00;0.00;;;;;;;;;;5063815;28;20251;-67
2021/08/23 11:23:32;;;;;;;0.08;0.08;;;;;;;;;;5063493;28;20205;-67
2021/08/23 11:26:00;;;;;;;0.03;0.03;;;;;;;;;;5060620;28;20213;-66
2021/08/23 11:28:30;;;;;;;0.00;0.00;;;;;;;;;;5077484;28;20276;-67
2021/08/23 11:30:57;;;;;;;0.10;0.10;;;;;;;;;;5076837;28;20206;-66
2021/08/23 11:33:24;;;;;;;0.00;0.00;;;;;;;;;;5076448;28;20227;-67
2021/08/23 11:35:51;;;;;;;0.00;0.00;;;;;;;;;;5069325;28;20206;-67
2021/08/23 11:38:17;;;;;;;0.10;0.10;;;;;;;;;;5083052;28;20211;-66
2021/08/23 11:40:45;;;;;;;0.00;0.00;;;;;;;;;;5083230;28;20204;-66
2021/08/23 11:43:11;;;;;;;0.08;0.08;;;;;;;;;;5083473;28;20205;-66
2021/08/23 11:45:40;;;;;;;0.10;0.10;;;;;;;;;;5082729;28;20234;-66
2021/08/23 11:48:07;;;;;;;0.10;0.10;;;;;;;;;;5058241;28;20237;-66
2021/08/23 11:50:33;;;;;;;0.00;0.00;;;;;;;;;;5042873;28;20271;-65
2021/08/23 11:53:02;;;;;;;0.03;0.03;;;;;;;;;;5043043;28;20410;-66
2021/08/23 11:55:29;;;;;;;0.00;0.00;;;;;;;;;;5042916;28;20274;-66
2021/08/23 11:57:57;;;;;;;0.00;0.00;;;;;;;;;;5053506;28;20412;-66
2021/08/23 12:00:23;;;;;;;0.10;0.10;;;;;;;;;;5053341;28;20269;-65
2021/08/23 12:03:00;;;;;;;0.00;0.00;;;;;;;;;;5059340;28;20265;-66
2021/08/23 12:05:27;;;;;;;0.08;0.08;;;;;;;;;;5046595;28;20245;-67
2021/08/23 12:07:53;;;;;;;0.00;0.00;;;;;;;;;;5059903;28;20542;-66
2021/08/23 12:10:27;;;;;;;0.00;0.00;;;;;;;;;;5050002;28;20247;-67
2021/08/23 12:12:53;;;;;;;0.00;0.00;;;;;;;;;;5058731;28;20277;-66
2021/08/23 12:15:23;;;;;;;0.00;0.00;;;;;;;;;;5048373;28;20468;-67
2021/08/23 12:17:51;;;;;;;0.00;0.00;;;;;;;;;;5057854;28;20301;-67
2021/08/23 12:20:19;;;;;;;0.10;0.10;;;;;;;;;;5045543;28;20209;-66
2021/08/23 12:22:45;;;;;;;0.10;0.10;;;;;;;;;;5046815;28;20227;-66
2021/08/23 12:25:11;;;;;;;0.00;0.00;;;;;;;;;;5052552;28;20399;-67
2021/08/23 12:27:37;;;;;;;0.10;0.10;;;;;;;;;;5066081;28;20554;-67
2021/08/23 12:30:04;;;;;;;0.08;0.08;;;;;;;;;;5086898;28;20476;-67
2021/08/23 12:32:34;;;;;;;0.10;0.10;;;;;;;;;;5070737;28;20214;-67
2021/08/23 12:35:02;;;;;;;0.10;0.10;;;;;;;;;;5061386;28;20223;-67
2021/08/23 12:37:30;;;;;;;0.10;0.10;;;;;;;;;;5062018;28;20382;-67
2021/08/23 12:39:56;;;;;;;0.00;0.00;;;;;;;;;;5061533;28;20214;-67
2021/08/23 12:42:23;;;;;;;0.10;0.10;;;;;;;;;;5066483;28;20237;-67
2021/08/23 12:44:49;;;;;;;0.10;0.10;;;;;;;;;;5061875;28;20249;-68
2021/08/23 12:47:15;;;;;;;0.00;0.00;;;;;;;;;;5066242;28;20205;-67
2021/08/23 12:49:41;;;;;;;0.00;0.00;;;;;;;;;;5061940;28;20201;-67
2021/08/23 12:52:09;;;;;;;0.10;0.10;;;;;;;;;;5061979;28;20214;-68
2021/08/23 12:54:35;;;;;;;0.08;0.08;;;;;;;;;;5060581;28;20234;-67
2021/08/23 12:57:02;;;;;;;0.08;0.08;;;;;;;;;;5061115;28;20278;-67
2021/08/23 12:59:28;;;;;;;0.00;0.00;;;;;;;;;;5061911;28;20226;-67
2021/08/23 13:01:54;;;;;;;0.00;0.00;;;;;;;;;;5062335;28;20233;-66
2021/08/23 13:04:20;;;;;;;0.10;0.10;;;;;;;;;;5062229;28;20203;-66
2021/08/23 13:06:47;;;;;;;0.00;0.00;;;;;;;;;;5062107;28;20204;-67
2021/08/23 13:09:14;;;;;;;0.05;0.05;;;;;;;;;;5062260;28;20371;-66
2021/08/23 13:11:41;;;;;;;0.00;0.00;;;;;;;;;;5055259;28;20291;-67
2021/08/23 13:14:07;;;;;;;0.03;0.03;;;;;;;;;;5065547;28;20226;-67
2021/08/23 13:16:33;;;;;;;0.00;0.00;;;;;;;;;;5065623;28;20253;-66
2021/08/23 13:18:59;;;;;;;0.10;0.10;;;;;;;;;;5054740;28;20219;-68
2021/08/23 13:21:27;;;;;;;0.10;0.10;;;;;;;;;;5062064;28;20213;-67
2021/08/23 13:23:53;;;;;;;0.00;0.00;;;;;;;;;;5065467;28;20202;-68
2021/08/23 13:26:22;;;;;;;0.00;0.00;;;;;;;;;;5061687;28;20462;-67
2021/08/23 13:28:49;;;;;;;0.10;0.10;;;;;;;;;;5082785;28;20206;-67
2021/08/23 13:31:16;;;;;;;0.08;0.08;;;;;;;;;;5076161;28;20207;-68
2021/08/23 13:33:43;;;;;;;0.00;0.00;;;;;;;;;;5066735;28;20502;-67
2021/08/23 13:36:09;;;;;;;0.10;0.10;;;;;;;;;;5085041;28;20515;-67
2021/08/23 13:38:35;;;;;;;0.00;0.00;;;;;;;;;;5085058;28;20248;-66
2021/08/23 13:41:01;;;;;;;0.05;0.05;;;;;;;;;;5071144;28;20242;-67
2021/08/23 13:43:29;;;;;;;0.00;0.00;;;;;;;;;;5085266;28;20248;-67
2021/08/23 13:45:55;;;;;;;0.00;0.00;;;;;;;;;;5080912;28;20259;-67
2021/08/23 13:48:22;;;;;;;0.00;0.00;;;;;;;;;;5075393;28;20234;-67
2021/08/23 13:50:48;;;;;;;0.00;0.00;;;;;;;;;;5067114;28;20223;-68
2021/08/23 13:53:14;;;;;;;0.00;0.00;;;;;;;;;;5084935;28;20262;-67
2021/08/23 13:55:41;;;;;;;0.00;0.00;;;;;;;;;;5056779;28;20225;-67
2021/08/23 13:58:07;;;;;;;0.10;0.10;;;;;;;;;;5084693;28;20202;-67
2021/08/23 14:00:35;;;;;;;0.10;0.10;;;;;;;;;;5084773;28;20201;-67
2021/08/23 14:03:03;;;;;;;0.10;0.10;;;;;;;;;;5070844;28;20228;-67
2021/08/23 14:05:30;;;;;;;0.05;0.05;;;;;;;;;;5084492;28;20527;-67
2021/08/23 14:07:56;;;;;;;0.10;0.10;;;;;;;;;;5081150;28;20269;-67
2021/08/23 14:10:23;;;;;;;0.10;0.10;;;;;;;;;;5064707;28;20217;-66
2021/08/23 14:12:49;;;;;;;0.08;0.08;;;;;;;;;;5056821;28;20252;-67
2021/08/23 14:15:16;;;;;;;0.00;0.00;;;;;;;;;;5064584;28;20261;-67
2021/08/23 14:17:44;;;;;;;0.03;0.03;;;;;;;;;;5064538;28;20264;-67
2021/08/23 14:20:11;;;;;;;0.08;0.08;;;;;;;;;;5057139;28;20212;-66
2021/08/23 14:22:38;;;;;;;0.10;0.10;;;;;;;;;;5058680;28;20246;-68
2021/08/23 14:25:05;;;;;;;0.00;0.00;;;;;;;;;;5055507;28;20203;-67
2021/08/23 14:27:31;;;;;;;0.10;0.10;;;;;;;;;;5059213;28;20211;-67
2021/08/23 14:29:58;;;;;;;0.00;0.00;;;;;;;;;;5084772;28;20227;-66
2021/08/23 14:32:24;;;;;;;0.00;0.00;;;;;;;;;;5074780;28;20218;-66
2021/08/23 14:34:52;;;;;;;0.00;0.00;;;;;;;;;;5066077;28;20230;-66
2021/08/23 14:37:19;;;;;;;0.00;0.00;;;;;;;;;;5070569;28;20272;-67
2021/08/23 14:39:45;;;;;;;0.00;0.00;;;;;;;;;;5077625;28;20222;-66
2021/08/23 14:42:11;;;;;;;0.03;0.03;;;;;;;;;;5069752;28;20210;-66
2021/08/23 14:44:37;;;;;;;0.00;0.00;;;;;;;;;;5083577;28;20202;-67
2021/08/23 14:47:05;;;;;;;0.10;0.10;;;;;;;;;;5048879;28;20508;-68
2021/08/23 14:49:31;;;;;;;0.03;0.03;;;;;;;;;;5059833;28;20213;-67
2021/08/23 14:52:00;;;;;;;0.00;0.00;;;;;;;;;;5063741;28;20217;-67
2021/08/23 14:54:26;;;;;;;0.08;0.08;;;;;;;;;;5059868;28;20225;-66
2021/08/23 14:56:53;;;;;;;0.03;0.03;;;;;;;;;;5059319;28;20332;-67
2021/08/23 14:59:19;;;;;;;0.00;0.00;;;;;;;;;;5060282;28;20268;-67
2021/08/23 15:01:45;;;;;;;0.03;0.03;;;;;;;;;;5064065;28;20514;-66
2021/08/23 15:04:11;;;;;;;0.10;0.10;;;;;;;;;;5063950;28;20228;-67
2021/08/23 15:06:37;;;;;;;0.00;0.00;;;;;;;;;;5063996;28;20499;-68
2021/08/23 15:09:05;;;;;;;0.00;0.00;;;;;;;;;;5056796;28;20252;-67
2021/08/23 15:11:32;;;;;;;0.03;0.03;;;;;;;;;;5062441;28;20205;-65
2021/08/23 15:13:58;;;;;;;0.00;0.00;;;;;;;;;;5056432;28;20203;-66
2021/08/23 15:16:24;;;;;;;0.10;0.10;;;;;;;;;;5049357;28;20287;-67
2021/08/23 15:18:51;;;;;;;0.10;0.10;;;;;;;;;;5059256;28;20288;-68
2021/08/23 15:21:17;;;;;;;0.00;0.00;;;;;;;;;;5063397;28;20207;-66
2021/08/23 15:23:44;;;;;;;0.00;0.00;;;;;;;;;;5059125;28;20244;-66
2021/08/23 15:26:12;;;;;;;0.00;0.00;;;;;;;;;;5055413;28;20238;-67
2021/08/23 15:28:38;;;;;;;0.00;0.00;;;;;;;;;;5077003;28;20309;-67
2021/08/23 15:31:05;;;;;;;0.10;0.10;;;;;;;;;;5070612;28;20202;-67
2021/08/23 15:33:32;;;;;;;0.10;0.10;;;;;;;;;;5062447;28;20411;-67
2021/08/23 15:35:59;;;;;;;0.00;0.00;;;;;;;;;;5057699;28;20336;-67
2021/08/23 15:38:25;;;;;;;0.10;0.10;;;;;;;;;;5063136;28;20469;-66
2021/08/23 15:40:52;;;;;;;0.00;0.00;;;;;;;;;;5063060;28;20262;-67
2021/08/23 15:43:20;;;;;;;0.10;0.10;;;;;;;;;;5057682;28;20466;-67
2021/08/23 15:45:46;;;;;;;0.10;0.10;;;;;;;;;;5062993;28;20441;-67
2021/08/23 15:48:12;;;;;;;0.00;0.00;;;;;;;;;;5063142;28;20379;-67
2021/08/23 15:50:39;;;;;;;0.00;0.00;;;;;;;;;;5057050;28;20238;-66
2021/08/23 15:53:06;;;;;;;0.10;0.10;;;;;;;;;;5055288;28;20202;-67
2021/08/23 15:55:32;;;;;;;0.00;0.00;;;;;;;;;;5058591;28;20528;-67
2021/08/23 15:57:58;;;;;;;0.00;0.00;;;;;;;;;;5049488;28;20414;-67
2021/08/23 16:00:26;;;;;;;0.10;0.10;;;;;;;;;;5062530;28;20251;-65
2021/08/23 16:02:52;;;;;;;0.03;0.03;;;;;;;;;;5057161;28;20248;-66
2021/08/23 16:05:18;;;;;;;0.00;0.00;;;;;;;;;;5066688;28;20800;-66
2021/08/23 16:07:45;;;;;;;0.00;0.00;;;;;;;;;;5065082;28;20342;-68
2021/08/23 16:10:13;;;;;;;0.08;0.08;;;;;;;;;;5050635;28;20216;-71
2021/08/23 16:12:39;;;;;;;0.10;0.10;;;;;;;;;;5049164;28;20196;-68
2021/08/23 16:15:07;;;;;;;0.10;0.10;;;;;;;;;;5061005;28;20226;-67
2021/08/23 16:17:35;;;;;;;0.00;0.00;;;;;;;;;;5068334;28;20206;-68
2021/08/23 16:20:02;;;;;;;0.05;0.05;;;;;;;;;;5069233;28;20264;-67
2021/08/23 16:22:28;;;;;;;0.00;0.00;;;;;;;;;;5066580;28;20553;-67
2021/08/23 16:24:55;;;;;;;0.10;0.10;;;;;;;;;;5063567;28;20202;-66
2021/08/23 16:27:21;;;;;;;0.00;0.00;;;;;;;;;;5063797;28;20546;-67
2021/08/23 16:29:47;;;;;;;0.10;0.10;;;;;;;;;;5077979;28;20244;-67
2021/08/23 16:32:14;;;;;;;0.08;0.08;;;;;;;;;;5086810;28;20207;-66
2021/08/23 16:34:42;;;;;;;0.10;0.10;;;;;;;;;;5089353;28;20205;-66
2021/08/23 16:37:08;;;;;;;0.10;0.10;;;;;;;;;;5089255;28;20256;-67
2021/08/23 16:39:34;;;;;;;0.10;0.10;;;;;;;;;;5085778;28;20256;-67
2021/08/23 16:42:02;;;;;;;0.00;0.00;;;;;;;;;;5061046;28;20378;-66
2021/08/23 16:44:29;;;;;;;0.00;0.00;;;;;;;;;;5062268;28;20225;-67
2021/08/23 16:46:55;;;;;;;0.10;0.10;;;;;;;;;;5069024;28;20209;-68
2021/08/23 16:49:22;;;;;;;0.00;0.00;;;;;;;;;;5057915;28;20232;-68
2021/08/23 16:51:49;;;;;;;0.00;0.00;;;;;;;;;;5057553;28;20219;-68
2021/08/23 16:54:16;;;;;;;0.00;0.00;;;;;;;;;;5050924;28;20221;-65
2021/08/23 16:56:42;;;;;;;0.00;0.00;;;;;;;;;;5053201;28;20231;-66
2021/08/23 16:59:08;;;;;;;0.05;0.05;;;;;;;;;;5067993;28;20268;-75
2021/08/23 17:01:35;;;;;;;0.00;0.00;;;;;;;;;;5069435;28;20229;-74
2021/08/23 17:04:01;;;;;;;0.10;0.10;;;;;;;;;;5070362;28;20197;-74
2021/08/23 17:06:27;;;;;;;0.05;0.05;;;;;;;;;;5068466;28;20200;-74
2021/08/23 17:08:55;;;;;;;0.00;0.00;;;;;;;;;;5069439;28;20205;-74
2021/08/23 17:11:22;;;;;;;0.00;0.00;;;;;;;;;;5056974;28;20502;-76
2021/08/23 17:13:48;;;;;;;0.10;0.10;;;;;;;;;;5059902;28;20216;-74
2021/08/23 17:16:14;;;;;;;0.10;0.10;;;;;;;;;;5053700;28;20232;-75
2021/08/23 17:18:40;;;;;;;0.40;0.40;;;;;;;;;;5064753;28;20268;-75
2021/08/23 17:21:06;;;;;;;0.00;0.00;;;;;;;;;;5064918;28;20214;-74
2021/08/23 17:23:33;;;;;;;0.00;0.00;;;;;;;;;;5065973;28;20432;-74
2021/08/23 17:26:02;;;;;;;0.03;0.03;;;;;;;;;;5063377;28;20331;-76
2021/08/23 17:28:28;;;;;;;0.00;0.00;;;;;;;;;;5045965;28;20203;-74
2021/08/23 17:30:55;;;;;;;0.00;0.00;;;;;;;;;;5072008;28;20369;-75
2021/08/23 17:33:21;;;;;;;0.10;0.10;;;;;;;;;;5086611;28;20205;-75
2021/08/23 17:35:48;;;;;;;0.03;0.03;;;;;;;;;;5080916;28;20223;-74
2021/08/23 17:38:14;;;;;;;0.00;0.00;;;;;;;;;;5066585;28;20237;-75
2021/08/23 17:40:40;;;;;;;0.00;0.00;;;;;;;;;;5069498;28;20215;-75
2021/08/23 17:43:08;;;;;;;0.10;0.10;;;;;;;;;;5053929;28;20208;-75
2021/08/23 17:45:34;;;;;;;0.00;0.00;;;;;;;;;;5065457;28;20214;-77
2021/08/23 17:48:00;;;;;;;0.08;0.08;;;;;;;;;;5057095;28;20269;-74
2021/08/23 17:50:26;;;;;;;0.00;0.00;;;;;;;;;;5046558;28;20205;-74
2021/08/23 17:52:53;;;;;;;0.10;0.10;;;;;;;;;;5064997;28;20227;-74
2021/08/23 17:55:19;;;;;;;0.08;0.08;;;;;;;;;;5065099;28;20308;-75
2021/08/23 17:57:45;;;;;;;0.10;0.10;;;;;;;;;;5045807;28;20410;-74
2021/08/23 18:00:13;;;;;;;0.00;0.00;;;;;;;;;;5063571;28;20250;-75
2021/08/23 18:02:40;;;;;;;0.00;0.00;;;;;;;;;;5047556;28;20211;-76
2021/08/23 18:05:06;;;;;;;0.00;0.00;;;;;;;;;;5045184;28;20256;-75
2021/08/23 18:07:33;;;;;;;0.00;0.00;;;;;;;;;;5044143;28;20274;-75
2021/08/23 18:09:59;;;;;;;0.10;0.10;;;;;;;;;;5045206;28;20202;-75
2021/08/23 18:12:26;;;;;;;0.00;0.00;;;;;;;;;;5060911;28;20493;-75
2021/08/23 18:14:52;;;;;;;0.00;0.00;;;;;;;;;;5064614;28;20225;-73
2021/08/23 18:17:22;;;;;;;0.00;0.00;;;;;;;;;;5052435;28;20266;-75
2021/08/23 18:19:49;;;;;;;0.00;0.00;;;;;;;;;;5044468;28;20277;-74
2021/08/23 18:22:16;;;;;;;0.00;0.00;;;;;;;;;;5043249;28;20207;-74
2021/08/23 18:24:42;;;;;;;0.00;0.00;;;;;;;;;;5044537;28;20362;-75
2021/08/23 18:27:08;;;;;;;0.00;0.00;;;;;;;;;;5051202;28;20427;-74
2021/08/23 18:29:34;;;;;;;0.08;0.08;;;;;;;;;;5084800;28;20214;-74
2021/08/23 18:32:03;;;;;;;0.10;0.10;;;;;;;;;;5084350;28;20360;-74
2021/08/23 18:34:30;;;;;;;0.32;0.32;;;;;;;;;;5082988;28;20206;-74
2021/08/23 18:36:57;;;;;;;0.10;0.10;;;;;;;;;;5078349;28;20232;-72
2021/08/23 18:39:23;;;;;;;0.00;0.00;;;;;;;;;;5070660;28;20244;-75
2021/08/23 18:41:49;;;;;;;0.05;0.05;;;;;;;;;;5072162;28;20381;-76
2021/08/23 18:44:16;;;;;;;0.00;0.00;;;;;;;;;;5074939;28;20249;-75
2021/08/23 18:46:42;;;;;;;0.00;0.00;;;;;;;;;;5074096;28;20201;-75
2021/08/23 18:49:08;;;;;;;0.00;0.00;;;;;;;;;;5068250;28;20415;-75
2021/08/23 18:51:36;;;;;;;0.10;0.10;;;;;;;;;;5060424;28;20217;-74
2021/08/23 18:54:02;;;;;;;0.10;0.10;;;;;;;;;;5060435;28;20206;-74
2021/08/23 18:56:30;;;;;;;0.00;0.00;;;;;;;;;;5064213;28;20283;-76
2021/08/23 18:58:56;;;;;;;0.10;0.10;;;;;;;;;;5059118;28;20208;-74
2021/08/23 19:01:22;;;;;;;0.10;0.10;;;;;;;;;;5056022;28;20489;-76
2021/08/23 19:03:49;;;;;;;0.10;0.10;;;;;;;;;;5064556;28;20219;-74
2021/08/23 19:06:15;;;;;;;0.10;0.10;;;;;;;;;;5054570;28;20229;-75
2021/08/23 19:08:42;;;;;;;0.00;0.00;;;;;;;;;;5053610;28;20373;-75
2021/08/23 19:11:09;;;;;;;0.00;0.00;;;;;;;;;;5064420;28;20219;-77
2021/08/23 19:13:35;;;;;;;0.10;0.10;;;;;;;;;;5064460;28;20213;-75
2021/08/23 19:16:04;;;;;;;0.00;0.00;;;;;;;;;;5064053;28;20220;-75
2021/08/23 19:18:30;;;;;;;0.10;0.10;;;;;;;;;;5063896;28;20229;-75
2021/08/23 19:20:57;;;;;;;0.00;0.00;;;;;;;;;;5064056;28;20208;-75
2021/08/23 19:23:23;;;;;;;0.10;0.10;;;;;;;;;;5055899;28;20209;-76
2021/08/23 19:25:52;;;;;;;0.00;0.00;;;;;;;;;;5054843;28;20545;-74
2021/08/23 19:28:18;;;;;;;0.10;0.10;;;;;;;;;;5059089;28;20232;-75
2021/08/23 19:30:45;;;;;;;0.10;0.10;;;;;;;;;;5057617;28;20245;-75
2021/08/23 19:33:12;;;;;;;0.08;0.08;;;;;;;;;;5054462;28;20202;-76
2021/08/23 19:35:39;;;;;;;0.00;0.00;;;;;;;;;;5054768;28;20211;-76
2021/08/23 19:38:05;;;;;;;0.00;0.00;;;;;;;;;;5054124;28;20234;-74
2021/08/23 19:40:32;;;;;;;0.10;0.10;;;;;;;;;;5052083;28;20202;-75
2021/08/23 19:42:59;;;;;;;0.10;0.10;;;;;;;;;;5052523;28;20269;-74
2021/08/23 19:45:26;;;;;;;0.05;0.05;;;;;;;;;;5057854;28;20207;-76
2021/08/23 19:47:52;;;;;;;0.10;0.10;;;;;;;;;;5057906;28;20209;-75
2021/08/23 19:50:18;;;;;;;0.05;0.05;;;;;;;;;;5049320;28;20210;-74
2021/08/23 19:52:45;;;;;;;0.00;0.00;;;;;;;;;;5053532;28;20255;-74
2021/08/23 19:55:11;;;;;;;0.10;0.10;;;;;;;;;;5051268;28;20550;-71
2021/08/23 19:57:37;;;;;;;0.05;0.05;;;;;;;;;;5054907;28;20226;-74
2021/08/23 20:00:06;;;;;;;0.00;0.00;;;;;;;;;;5053775;28;20220;-76
2021/08/23 20:02:33;;;;;;;0.10;0.10;;;;;;;;;;5055796;28;20271;-75
2021/08/23 20:05:00;;;;;;;0.08;0.08;;;;;;;;;;5052365;28;20210;-76
2021/08/23 20:07:26;;;;;;;0.00;0.00;;;;;;;;;;5056736;28;20208;-75